Airfield :
LOGIN :

Register | Disclaimer

   EN    FR    IT 

 










Legend :    VFR   Marginal VFR   IFR   Intensive IFR   Very Intensive IFR
Visi :
Ceiling :
>= 8 km
>= 3000ft
5 to 8 km
1000 to 3000 ft
1500m to 5 km
500 to 1000 ft
800 to 1500m
200 to 500 ft
< 800m
< 200 ft
Symbols :   Thunderstorms  Fog  Heavy snow  Heavy precipitations  Wind > 20 kt
SIGMETs :     Misc.  Thunderstorms  Icing  Turbulence  Mountain Waves  Volcanic Ashes







- Airport Elevation : 144 ft
- IATA code : PGF
- Download approach charts


LFMP - Perpignan

CURRENT METAR :
  • 181200Z AUTO 33014KT CAVOK 18/03 Q1020 TEMPO 32018G30KT

EXPIRED METARs :
  • 181130Z AUTO 32013KT CAVOK 17/04 Q1020 TEMPO 32018G30KT
  • 181100Z AUTO 33018KT CAVOK 17/04 Q1020 NOSIG
  • 181030Z AUTO 33017KT CAVOK 16/04 Q1020 NOSIG
  • 181000Z AUTO 33015KT CAVOK 16/05 Q1020 NOSIG
  • 180930Z AUTO 32016KT CAVOK 15/05 Q1021 NOSIG

TAF TAF LFMP
Valid from the 18 at 09:00 until the 19 at 09:00 UTC


180800Z 1809/1909 31017KT CAVOK
TEMPO 1813/1818 32018G30KT
ATIS : +33 4 68 63 75 12
No reported NOTAMs for that airfield.



MET'MAP, your aeronautical weather chart ! - Copyright ORBIFLY December 2007 - Disclaimer

ORBIFLY MET'MAP TEAM :

Programming & Development : Alexandra Zaïnal
Concept & Development : Baudouin d'Aumeries
Co-Development & Prog : Marc-Olivier Méhu
Technical & hardware support : Manuel Goepfert

Contact : metmap@orbifly.com




SOURCES & CREDITS :

   NOAA